Latest Weather Observations for Perth

IDW60901

Issued at 4:51 pm WST Saturday 16 December 2017 (issued every 10 minutes, with the page automatically refreshed every 10 minutes)

About weather observations | Map of Perth area stations | Latest observations for Perth area | Other Formats
Station Details ID: 009225 Name: PERTH METRO Lat: -31.92 Lon: 115.87 Height: 24.9 m
Data from the previous 72 hours. | See also: Recent months at Perth
Date/Time
WST
Temp
°C
App
Temp
°C
Dew
Point
°C
Rel
Hum
%
Delta-T
°C
Wind Press
QNH
hPa
Press
MSL
hPa
Rain since
9am
mm
Dir  Spd
km/h
Gust
km/h
Spd
kts
Gust
kts
16/04:30pm 22.2 20.3 14.1 60 4.7 WSW 17 32 9 17 1006.2 1006.1 0.0
16/04:00pm 22.3 20.2 13.6 58 5.1 WSW 17 32 9 17 1006.6 1006.5 0.0
16/03:30pm 22.4 20.2 15.0 63 4.4 SW 20 32 11 17 1006.7 1006.6 0.0
16/03:00pm 22.4 19.7 14.5 61 4.7 SW 22 37 12 20 1006.8 1006.7 0.0
16/02:30pm 22.9 20.2 14.5 59 5.0 WSW 22 33 12 18 1006.8 1006.7 0.0
16/02:00pm 23.8 21.6 15.0 57 5.3 WSW 20 33 11 18 1006.8 1006.7 0.0
16/01:30pm 24.0 21.8 14.4 55 5.7 SW 19 37 10 20 1006.7 1006.6 0.0
16/01:00pm 24.9 22.8 14.7 53 6.1 WSW 19 32 10 17 1006.6 1006.5 0.0
16/12:30pm 25.5 23.8 14.6 51 6.5 WSW 17 32 9 17 1006.7 1006.6 0.0
16/12:00pm 26.4 24.7 13.5 45 7.6 W 15 24 8 13 1006.7 1006.6 0.0
16/11:30am 26.9 25.4 14.3 46 7.5 WSW 15 20 8 11 1006.8 1006.7 0.0
16/11:00am 27.0 26.7 14.4 46 7.6 W 9 20 5 11 1006.7 1006.6 0.0
16/10:30am 26.8 25.9 12.5 41 8.3 WSW 9 13 5 7 1006.8 1006.7 0.0
16/10:00am 26.0 26.0 13.5 46 7.4 NW 6 11 3 6 1007.1 1007.0 0.0
16/09:30am 24.6 24.2 12.9 48 6.8 S 7 13 4 7 1007.3 1007.2 0.0
16/09:00am 24.8 24.7 13.4 49 6.7 E 6 11 3 6 1007.5 1007.4 0.0
16/08:30am 22.9 22.6 12.8 53 5.8 SSE 6 15 3 8 1007.8 1007.7 0.0
16/08:00am 22.7 22.3 12.9 54 5.6 SE 7 13 4 7 1008.2 1008.1 0.0
16/07:30am 21.7 20.9 12.8 57 5.1 SSE 9 17 5 9 1008.4 1008.3 0.0
16/07:00am 20.6 19.3 12.6 60 4.5 S 11 22 6 12 1008.5 1008.4 0.0
16/06:30am 19.6 18.8 12.8 65 3.8 S 9 13 5 7 1008.6 1008.5 0.0
16/06:00am 18.6 17.7 12.6 68 3.4 SSE 9 15 5 8 1008.3 1008.2 0.0
16/05:30am 17.0 16.6 12.5 75 2.5 S 6 7 3 4 1008.0 1007.9 0.0
16/05:00am 17.7 17.4 12.6 72 2.8 S 6 9 3 5 1007.9 1007.8 0.0
16/04:30am 18.3 17.8 12.5 69 3.2 S 7 11 4 6 1007.9 1007.8 0.0
16/04:00am 17.9 17.6 13.2 74 2.7 S 7 11 4 6 1007.8 1007.7 0.0
16/03:30am 16.8 16.8 13.7 82 1.8 S 6 7 3 4 1007.7 1007.6 0.0
16/03:00am 17.3 18.6 14.0 81 1.9 CALM 0 0 0 0 1007.8 1007.7 0.0
16/02:30am 17.8 18.3 14.1 79 2.1 S 4 7 2 4 1007.7 1007.6 0.0
16/02:00am 18.0 18.6 14.3 79 2.1 S 4 7 2 4 1007.8 1007.7 0.0
16/01:30am 18.5 18.8 14.6 78 2.3 SSW 6 9 3 5 1008.0 1007.9 0.0
16/01:00am 19.0 19.5 15.1 78 2.3 SSW 6 11 3 6 1008.1 1008.0 0.0
16/12:30am 19.5 19.2 15.4 77 2.4 S 11 17 6 9 1008.3 1008.2 0.0
16/12:00am 19.7 19.8 15.6 77 2.4 SSW 9 15 5 8 - - 0.0
 
Date/Time
WST
Temp
°C
App
Temp
°C
Dew
Point
°C
Rel
Hum
%
Delta-T
°C
Wind Press
QNH
hPa
Press
MSL
hPa
Rain since
9am
mm
Dir  Spd
km/h
Gust
km/h
Spd
kts
Gust
kts
15/11:30pm 19.9 19.6 15.5 76 2.6 SSW 11 24 6 13 1008.6 1008.5 0.0
15/11:00pm 19.9 20.0 15.5 76 2.6 SSW 9 17 5 9 1009.0 1008.9 0.0
15/10:30pm 20.0 20.1 15.4 75 2.7 SSW 9 15 5 8 1009.3 1009.2 0.0
15/10:00pm 20.2 20.3 15.4 74 2.8 SSW 9 19 5 10 1009.5 1009.4 0.0
15/09:30pm 20.3 19.2 15.3 73 3.0 SSW 15 28 8 15 1009.5 1009.4 0.0
15/09:00pm 20.6 20.5 16.0 75 2.8 SSW 11 20 6 11 1009.4 1009.3 0.0
15/08:30pm 21.0 20.6 16.2 74 2.9 SSW 13 24 7 13 1009.3 1009.2 0.0
15/08:00pm 21.2 21.3 16.4 74 2.9 SW 11 20 6 11 1009.1 1009.0 0.0
15/07:30pm 21.6 21.6 16.3 72 3.2 SW 11 19 6 10 1009.2 1009.1 0.0
15/07:00pm 22.2 21.0 16.0 68 3.7 SW 17 26 9 14 1009.3 1009.2 0.0
15/06:30pm 23.1 22.4 16.4 66 4.1 SSW 15 22 8 12 1009.0 1008.9 0.0
15/06:00pm 22.8 21.6 16.1 66 4.1 SW 17 30 9 16 1009.1 1009.0 0.0
15/05:30pm 23.2 21.5 15.8 63 4.5 SW 19 33 10 18 1009.1 1009.0 0.0
15/05:00pm 23.8 21.5 15.6 60 5.0 SW 22 35 12 19 1009.0 1008.9 0.0
15/04:30pm 25.1 23.0 15.1 53 6.0 SW 20 33 11 18 1009.0 1008.9 0.0
15/04:00pm 25.6 23.3 14.7 51 6.5 SW 20 32 11 17 1009.2 1009.1 0.0
15/03:30pm 26.1 23.4 14.6 49 6.9 SW 22 35 12 19 1009.2 1009.1 0.0
15/03:00pm 25.9 23.1 14.4 49 6.9 SSW 22 35 12 19 1009.3 1009.2 0.0
15/02:30pm 26.6 24.2 15.3 50 6.9 SSW 22 37 12 20 1009.4 1009.3 0.0
15/02:00pm 26.8 24.8 15.5 50 6.9 SSW 20 33 11 18 1009.7 1009.6 0.0
15/01:30pm 27.5 25.9 16.1 49 7.0 SW 19 32 10 17 1009.9 1009.8 0.0
15/01:00pm 27.3 25.7 16.0 50 7.0 SSW 19 28 10 15 1010.1 1010.0 0.0
15/12:30pm 27.5 26.5 15.5 48 7.3 SW 15 24 8 13 1010.5 1010.4 0.0
15/12:00pm 27.8 26.4 15.5 47 7.5 SW 17 24 9 13 1011.0 1010.9 0.0
15/11:30am 28.9 28.4 13.9 39 9.0 SSW 9 17 5 9 1011.1 1011.0 0.0
15/11:00am 28.3 27.0 12.6 38 9.2 SSW 11 15 6 8 1011.5 1011.4 0.0
15/10:30am 27.5 26.9 12.3 39 8.8 WSW 7 13 4 7 1011.7 1011.6 0.0
15/10:00am 26.8 26.3 12.1 40 8.5 S 6 15 3 8 1012.0 1011.9 0.0
15/09:30am 25.7 25.3 12.9 45 7.4 SE 7 13 4 7 1012.3 1012.1 0.0
15/09:00am 24.1 22.9 12.7 49 6.6 SE 11 19 6 10 1012.6 1012.4 0.0
15/08:30am 23.1 22.4 13.3 54 5.7 E 9 20 5 11 1012.8 1012.6 0.0
15/08:00am 22.1 21.2 12.6 55 5.4 ENE 9 15 5 8 1012.9 1012.7 0.0
15/07:30am 21.6 20.9 13.2 59 4.8 ESE 9 15 5 8 1013.1 1012.9 0.0
15/07:00am 20.4 20.0 13.1 63 4.2 SE 7 9 4 5 1013.2 1013.0 0.0
15/06:30am 18.3 18.9 13.2 72 2.9 SSE 2 7 1 4 1013.3 1013.1 0.0
15/06:00am 16.8 16.9 12.7 77 2.3 SSE 4 9 2 5 1013.3 1013.1 0.0
15/05:30am 16.4 16.0 12.4 77 2.2 S 6 9 3 5 1013.1 1012.9 0.0
15/05:00am 16.5 16.0 12.5 77 2.2 S 7 9 4 5 1012.8 1012.6 0.0
15/04:30am 16.8 16.3 12.5 76 2.4 S 7 13 4 7 1012.7 1012.5 0.0
15/04:00am 16.8 16.4 12.9 78 2.2 S 7 13 4 7 1012.6 1012.4 0.0
15/03:30am 16.5 16.1 13.0 80 2.0 S 7 11 4 6 1012.4 1012.2 0.0
15/03:00am 16.7 15.8 12.7 77 2.2 S 9 13 5 7 1012.6 1012.4 0.0
15/02:30am 17.1 15.9 12.8 76 2.4 SSE 11 17 6 9 1012.7 1012.5 0.0
15/02:00am 17.4 16.2 12.9 75 2.5 S 11 17 6 9 1012.9 1012.7 0.0
15/01:30am 17.7 16.6 13.0 74 2.6 S 11 19 6 10 1013.2 1013.0 0.0
15/01:00am 18.1 17.2 13.6 75 2.6 S 11 19 6 10 1013.7 1013.6 0.0
15/12:30am 18.3 17.4 13.8 75 2.6 S 11 20 6 11 1013.7 1013.6 0.0
15/12:00am 18.4 18.1 14.3 77 2.4 S 9 17 5 9 1014.1 1014.0 0.0
 
Date/Time
WST
Temp
°C
App
Temp
°C
Dew
Point
°C
Rel
Hum
%
Delta-T
°C
Wind Press
QNH
hPa
Press
MSL
hPa
Rain since
9am
mm
Dir  Spd
km/h
Gust
km/h
Spd
kts
Gust
kts
14/11:30pm 18.6 18.7 14.5 77 2.4 S 7 13 4 7 1014.3 1014.2 0.0
14/11:00pm 18.8 18.5 14.5 76 2.5 S 9 17 5 9 1014.6 1014.5 0.0
14/10:30pm 19.1 18.0 14.4 74 2.7 S 13 20 7 11 1014.9 1014.8 0.0
14/10:00pm 19.3 18.3 14.6 74 2.7 S 13 28 7 15 1015.1 1015.0 0.0
14/09:30pm 19.4 18.8 14.6 74 2.8 SSW 11 22 6 12 1015.3 1015.2 0.0
14/09:00pm 19.7 18.3 14.5 72 3.0 SSW 15 30 8 16 1015.2 1015.1 0.0
14/08:30pm 19.9 18.2 14.7 72 3.0 SSW 17 30 9 16 1015.1 1015.0 0.0
14/08:00pm 20.1 18.5 14.9 72 3.0 SSW 17 32 9 17 1014.9 1014.8 0.0
14/07:30pm 20.4 19.6 15.0 71 3.2 SSW 13 22 7 12 1014.8 1014.7 0.0
14/07:00pm 20.9 20.0 14.8 68 3.6 SW 13 22 7 12 1014.8 1014.7 0.0
14/06:30pm 21.5 19.2 14.2 63 4.3 SW 19 32 10 17 1014.7 1014.6 0.0
14/06:00pm 22.5 20.1 13.8 58 5.1 SW 19 32 10 17 1014.4 1014.3 0.0
14/05:30pm 23.1 20.3 12.7 52 6.0 SW 19 30 10 16 1014.3 1014.2 0.0
14/05:00pm 23.2 20.2 12.5 51 6.1 SW 20 33 11 18 1014.2 1014.1 0.0
14/04:30pm 23.4 19.7 12.7 51 6.1 SW 24 37 13 20 1014.3 1014.2 0.0
14/04:00pm 23.9 20.3 13.2 51 6.2 SW 24 37 13 20 1014.4 1014.3 0.0
14/03:30pm 25.2 23.0 14.3 50 6.5 SSW 19 32 10 17 1014.3 1014.2 0.0
14/03:00pm 25.0 22.2 13.2 48 6.9 SW 20 33 11 18 1014.4 1014.3 0.0
14/02:30pm 26.0 23.8 13.2 45 7.5 SW 17 30 9 16 1014.6 1014.5 0.0
14/02:00pm 26.1 23.8 12.9 44 7.7 SW 17 33 9 18 1014.7 1014.6 0.0
14/01:30pm 27.3 25.3 14.0 44 7.9 SSW 17 28 9 15 1015.0 1014.9 0.0
14/01:00pm 26.5 24.3 13.3 44 7.7 SSW 17 26 9 14 1015.2 1015.1 0.0
14/12:30pm 27.5 26.0 13.1 41 8.5 SSW 13 20 7 11 1015.4 1015.3 0.0
14/12:00pm 26.0 24.4 10.2 37 8.8 SW 9 17 5 9 1015.8 1015.7 0.0
14/11:30am 25.4 23.8 10.1 38 8.5 SE 9 17 5 9 1016.4 1016.3 0.0
14/11:00am 25.0 24.3 10.1 39 8.2 ESE 4 13 2 7 1016.8 1016.7 0.0
14/10:30am 24.7 23.1 11.6 44 7.4 ESE 11 20 6 11 1017.1 1017.0 0.0
14/10:00am 23.9 22.8 11.9 47 6.8 SE 9 17 5 9 1017.5 1017.4 0.0
14/09:30am 23.4 22.4 12.4 50 6.3 ENE 9 17 5 9 1017.9 1017.8 0.0
14/09:00am 22.7 21.7 12.3 52 5.9 E 9 19 5 10 1018.2 1018.1 0.0
14/08:30am 21.3 19.6 11.1 52 5.6 SE 11 20 6 11 1018.4 1018.3 0.0
14/08:00am 20.7 19.0 11.3 55 5.2 E 11 19 6 10 1018.6 1018.5 0.0
14/07:30am 20.0 18.3 11.2 57 4.8 E 11 19 6 10 1018.6 1018.5 0.0
14/07:00am 19.5 18.2 11.3 59 4.5 ENE 9 17 5 9 1018.6 1018.5 0.0
14/06:30am 18.2 17.4 11.0 63 3.9 E 6 13 3 7 1018.5 1018.4 0.0
14/06:00am 16.5 15.6 10.6 68 3.1 SE 6 9 3 5 1018.5 1018.4 0.0
14/05:30am 15.8 14.7 10.6 71 2.8 SE 7 13 4 7 1018.2 1018.1 0.0
14/05:00am 15.5 14.3 10.3 71 2.7 SSE 7 11 4 6 1018.1 1018.0 0.0
14/04:30am 15.7 14.2 10.5 71 2.7 SSE 9 13 5 7 1017.9 1017.8 0.0
14/04:00am 15.8 14.3 10.6 71 2.8 S 9 15 5 8 1017.8 1017.7 0.0
14/03:30am 15.9 14.1 10.7 71 2.8 SSE 11 22 6 12 1017.6 1017.5 0.0
14/03:00am 16.4 14.4 10.3 67 3.2 S 11 20 6 11 1017.3 1017.2 0.0
14/02:30am 16.7 14.4 10.3 66 3.4 S 13 20 7 11 1017.1 1017.0 0.0
14/02:00am 16.9 14.6 10.5 66 3.4 S 13 20 7 11 1017.1 1017.0 0.0
14/01:30am 17.1 14.9 10.7 66 3.4 S 13 22 7 12 1017.1 1017.0 0.0
14/01:00am 17.3 15.1 10.9 66 3.4 SSE 13 20 7 11 1017.2 1017.1 0.0
14/12:30am 17.7 15.5 10.8 64 3.7 S 13 22 7 12 1017.4 1017.3 0.0
14/12:00am 18.1 15.2 11.0 63 3.8 S 17 26 9 14 1017.5 1017.4 0.0
 
Date/Time
WST
Temp
°C
App
Temp
°C
Dew
Point
°C
Rel
Hum
%
Delta-T
°C
Wind Press
QNH
hPa
Press
MSL
hPa
Rain since
9am
mm
Dir  Spd
km/h
Gust
km/h
Spd
kts
Gust
kts
13/11:30pm 18.5 15.8 11.6 64 3.8 S 17 30 9 16 1017.7 1017.6 0.0
13/11:00pm 18.9 16.4 12.4 66 3.6 S 17 30 9 16 1017.7 1017.6 0.0
13/10:30pm 19.1 17.8 13.7 71 3.1 S 13 24 7 13 1017.8 1017.7 0.0
13/10:00pm 19.3 18.6 14.3 73 2.9 S 11 22 6 12 1017.8 1017.7 0.0
13/09:30pm 19.5 17.6 14.3 72 3.0 S 17 35 9 19 1017.7 1017.6 0.0
13/09:00pm 19.7 17.8 14.1 70 3.2 S 17 28 9 15 1017.5 1017.4 0.0
13/08:30pm 19.8 17.9 14.2 70 3.2 SSW 17 26 9 14 1017.3 1017.2 0.0
13/08:00pm 19.9 18.5 14.5 71 3.1 SSW 15 24 8 13 1017.1 1017.0 0.0
13/07:30pm 20.3 18.2 13.7 66 3.8 SSW 17 28 9 15 1016.8 1016.7 0.0
13/07:00pm 20.6 18.6 13.8 65 3.9 SSW 17 33 9 18 1016.6 1016.5 0.0
13/06:30pm 21.0 18.6 13.7 63 4.2 SW 19 32 10 17 1016.6 1016.5 0.0
13/06:00pm 21.6 18.8 13.2 59 4.8 SW 20 35 11 19 1016.4 1016.3 0.0
13/05:30pm 22.3 19.5 13.1 56 5.3 SW 20 35 11 19 1016.1 1016.0 0.0
13/05:00pm 23.0 20.2 13.2 54 5.7 SSW 20 33 11 18 1016.0 1015.9 0.0

Latest Capital City Observations: Canberra | Sydney | Melbourne | Brisbane | Adelaide | Perth | Hobart | Darwin

Other Formats:

Comma delimited format used in spreadsheet applications
http://www.bom.gov.au/fwo/IDW60901/IDW60901.94608.axf

JavaScript Object Notation format (JSON) in row-major order
http://www.bom.gov.au/fwo/IDW60901/IDW60901.94608.json